Time;durP1;ratioP1;P1;durP2;ratioP2;P2;SDS_P1;SDS_P2;PMS_P1;PMS_P2;Temp;Humidity;BMP_temperature;BMP_pressure;BME280_temperature;BME280_humidity;BME280_pressure;Samples;Min_cycle;Max_cycle;Signal;HPM_P1;HPM_P2
2022/08/28 00:01:53;;;;;;;4.03;3.63;;;;;;;;;;5010253;28;20645;-60
2022/08/28 00:04:19;;;;;;;4.43;3.33;;;;;;;;;;5010629;28;20183;-60
2022/08/28 00:06:45;;;;;;;6.57;3.47;;;;;;;;;;5017912;28;20235;-60
2022/08/28 00:09:11;;;;;;;4.43;3.33;;;;;;;;;;4995574;28;20176;-60
2022/08/28 00:11:38;;;;;;;4.33;3.40;;;;;;;;;;5012075;28;20180;-60
2022/08/28 00:14:05;;;;;;;3.53;3.23;;;;;;;;;;5008147;28;20800;-60
2022/08/28 00:16:32;;;;;;;6.63;3.53;;;;;;;;;;5007675;28;20184;-60
2022/08/28 00:19:00;;;;;;;4.83;3.70;;;;;;;;;;4998014;28;20657;-60
2022/08/28 00:21:27;;;;;;;5.03;3.77;;;;;;;;;;5007863;28;20662;-60
2022/08/28 00:23:53;;;;;;;5.40;4.00;;;;;;;;;;4998192;28;20578;-60
2022/08/28 00:29:06;;;;;;;4.07;3.67;;;;;;;;;;5006795;28;20257;-60
2022/08/28 00:31:33;;;;;;;6.23;3.70;;;;;;;;;;5004250;28;20198;-60
2022/08/28 00:34:03;;;;;;;3.80;3.50;;;;;;;;;;5003024;28;20206;-60
2022/08/28 00:36:29;;;;;;;3.70;3.27;;;;;;;;;;4991387;28;20207;-60
2022/08/28 00:38:58;;;;;;;4.33;3.93;;;;;;;;;;4988121;28;20190;-60
2022/08/28 00:41:25;;;;;;;4.77;3.63;;;;;;;;;;5008920;28;20626;-60
2022/08/28 00:44:04;;;;;;;4.83;4.37;;;;;;;;;;5007858;28;20634;-60
2022/08/28 00:46:30;;;;;;;5.93;4.50;;;;;;;;;;5006896;28;20201;-61
2022/08/28 00:48:56;;;;;;;4.90;4.30;;;;;;;;;;4990399;28;20191;-60
2022/08/28 00:54:08;;;;;;;5.00;4.23;;;;;;;;;;5006607;28;20256;-60
2022/08/28 00:56:34;;;;;;;5.30;4.17;;;;;;;;;;4991696;28;20270;-60
2022/08/28 00:59:03;;;;;;;6.77;4.73;;;;;;;;;;5009460;28;20190;-60
2022/08/28 01:01:29;;;;;;;5.60;4.57;;;;;;;;;;5007161;28;20182;-60
2022/08/28 01:03:56;;;;;;;5.20;4.70;;;;;;;;;;5018046;28;20175;-59
2022/08/28 01:06:22;;;;;;;4.87;4.20;;;;;;;;;;4990239;28;20265;-60
2022/08/28 01:08:49;;;;;;;4.50;4.10;;;;;;;;;;4996347;28;20274;-61
2022/08/28 01:11:16;;;;;;;4.30;3.90;;;;;;;;;;5020232;28;20186;-60
2022/08/28 01:13:45;;;;;;;4.27;3.73;;;;;;;;;;5007307;28;20200;-60
2022/08/28 01:16:13;;;;;;;4.67;4.10;;;;;;;;;;5025085;28;20178;-60
2022/08/28 01:18:40;;;;;;;4.17;3.80;;;;;;;;;;5001571;28;20183;-60
2022/08/28 01:21:22;;;;;;;5.50;4.73;;;;;;;;;;5008378;28;20183;-60
2022/08/28 01:23:57;;;;;;;4.63;4.23;;;;;;;;;;5008220;28;20186;-60
2022/08/28 01:26:25;;;;;;;4.53;3.87;;;;;;;;;;5008441;28;20558;-60
2022/08/28 01:28:58;;;;;;;7.13;4.80;;;;;;;;;;5006024;28;20649;-60
2022/08/28 01:31:26;;;;;;;5.73;4.30;;;;;;;;;;5008417;28;20180;-60
2022/08/28 01:33:53;;;;;;;6.37;5.27;;;;;;;;;;4988854;28;20623;-60
2022/08/28 01:36:19;;;;;;;6.23;5.03;;;;;;;;;;5004501;28;20677;-60
2022/08/28 01:38:48;;;;;;;6.17;4.90;;;;;;;;;;4999385;28;20769;-59
2022/08/28 01:41:15;;;;;;;5.30;4.80;;;;;;;;;;5003110;28;20177;-60
2022/08/28 01:43:42;;;;;;;8.43;4.93;;;;;;;;;;5003280;28;20559;-59
2022/08/28 01:46:09;;;;;;;6.70;5.60;;;;;;;;;;5006156;28;20181;-59
2022/08/28 01:48:36;;;;;;;7.30;5.00;;;;;;;;;;5004743;28;20190;-59
2022/08/28 01:51:06;;;;;;;7.17;4.97;;;;;;;;;;4990966;28;20179;-59
2022/08/28 01:53:35;;;;;;;6.93;4.67;;;;;;;;;;5005991;28;20286;-59
2022/08/28 01:56:03;;;;;;;6.20;5.03;;;;;;;;;;5005033;28;20506;-59
2022/08/28 01:58:30;;;;;;;5.63;5.00;;;;;;;;;;5007370;28;20614;-59
2022/08/28 02:00:56;;;;;;;6.77;4.73;;;;;;;;;;5006676;28;20187;-59
2022/08/28 02:03:29;;;;;;;9.63;8.83;;;;;;;;;;5006430;28;20222;-59
2022/08/28 02:05:56;;;;;;;6.17;5.10;;;;;;;;;;4990155;28;20236;-59
2022/08/28 02:08:22;;;;;;;7.53;4.53;;;;;;;;;;5007061;28;20186;-59
2022/08/28 02:10:48;;;;;;;5.23;4.70;;;;;;;;;;4989340;28;20245;-59
2022/08/28 02:13:15;;;;;;;5.50;5.00;;;;;;;;;;5003363;28;20203;-59
2022/08/28 02:15:42;;;;;;;5.17;4.67;;;;;;;;;;4983627;28;20236;-59
2022/08/28 02:18:08;;;;;;;9.33;5.37;;;;;;;;;;5010665;28;20206;-59
2022/08/28 02:20:35;;;;;;;5.10;4.30;;;;;;;;;;5007734;28;20182;-59
2022/08/28 02:23:01;;;;;;;7.13;4.30;;;;;;;;;;4987478;28;20178;-59
2022/08/28 02:25:27;;;;;;;7.87;5.03;;;;;;;;;;4990396;28;20659;-59
2022/08/28 02:27:54;;;;;;;5.63;4.70;;;;;;;;;;5006762;28;20911;-59
2022/08/28 02:30:20;;;;;;;6.17;5.43;;;;;;;;;;5001163;28;20613;-59
2022/08/28 02:32:46;;;;;;;5.93;5.17;;;;;;;;;;5009060;28;20702;-59
2022/08/28 02:35:14;;;;;;;5.77;5.13;;;;;;;;;;4987952;28;20262;-59
2022/08/28 02:37:43;;;;;;;7.70;5.50;;;;;;;;;;4988510;28;20663;-59
2022/08/28 02:40:09;;;;;;;7.37;5.57;;;;;;;;;;5010923;28;20536;-59
2022/08/28 02:42:35;;;;;;;6.43;4.97;;;;;;;;;;5007780;28;20591;-59
2022/08/28 02:45:01;;;;;;;6.17;5.40;;;;;;;;;;5009241;28;20187;-60
2022/08/28 02:47:27;;;;;;;5.87;5.27;;;;;;;;;;5009278;28;20575;-60
2022/08/28 02:49:54;;;;;;;6.90;5.63;;;;;;;;;;5006832;28;20630;-59
2022/08/28 02:52:22;;;;;;;5.40;4.97;;;;;;;;;;5019768;28;20713;-59
2022/08/28 02:54:48;;;;;;;6.97;5.90;;;;;;;;;;4992847;28;20194;-59
2022/08/28 02:57:15;;;;;;;8.37;5.60;;;;;;;;;;5010983;28;20186;-59
2022/08/28 02:59:42;;;;;;;6.70;5.37;;;;;;;;;;5015963;28;20179;-59
2022/08/28 03:02:09;;;;;;;6.40;5.27;;;;;;;;;;5010907;28;20183;-59
2022/08/28 03:04:35;;;;;;;6.63;5.27;;;;;;;;;;5013928;28;20187;-60
2022/08/28 03:07:02;;;;;;;6.53;5.63;;;;;;;;;;4994184;28;20222;-60
2022/08/28 03:09:28;;;;;;;6.00;5.20;;;;;;;;;;4991877;28;20593;-59
2022/08/28 03:11:54;;;;;;;5.10;4.30;;;;;;;;;;5010429;28;20186;-59
2022/08/28 03:14:20;;;;;;;5.47;4.97;;;;;;;;;;5011237;28;20211;-60
2022/08/28 03:16:47;;;;;;;30.60;29.03;;;;;;;;;;5012475;28;20258;-60
2022/08/28 03:19:13;;;;;;;7.83;6.10;;;;;;;;;;5013421;28;20167;-60
2022/08/28 03:21:39;;;;;;;5.83;4.80;;;;;;;;;;5001615;28;20182;-60
2022/08/28 03:24:05;;;;;;;9.40;4.93;;;;;;;;;;5014299;28;20182;-60
2022/08/28 03:26:32;;;;;;;5.63;5.00;;;;;;;;;;4993169;28;20178;-60
2022/08/28 03:28:58;;;;;;;5.60;5.10;;;;;;;;;;5010090;28;20645;-60
2022/08/28 03:31:25;;;;;;;6.93;5.27;;;;;;;;;;5010898;28;20645;-60
2022/08/28 03:33:53;;;;;;;6.13;4.97;;;;;;;;;;5013634;28;20232;-60
2022/08/28 03:36:23;;;;;;;7.53;5.13;;;;;;;;;;5010372;28;20684;-60
2022/08/28 03:38:50;;;;;;;9.73;5.40;;;;;;;;;;4972052;28;20302;-60
2022/08/28 03:41:18;;;;;;;5.53;5.03;;;;;;;;;;5022679;28;20181;-60
2022/08/28 03:43:44;;;;;;;5.77;4.90;;;;;;;;;;5010212;28;20185;-60
2022/08/28 03:46:15;;;;;;;6.43;5.33;;;;;;;;;;4994937;28;20189;-60
2022/08/28 03:48:41;;;;;;;6.60;5.10;;;;;;;;;;4993146;28;20209;-60
2022/08/28 03:51:09;;;;;;;6.37;4.80;;;;;;;;;;5008897;28;20212;-60
2022/08/28 03:53:36;;;;;;;6.23;4.80;;;;;;;;;;5006094;28;20198;-60
2022/08/28 03:56:05;;;;;;;5.60;5.10;;;;;;;;;;4993180;28;20641;-60
2022/08/28 03:58:31;;;;;;;5.43;4.93;;;;;;;;;;4990025;28;20193;-60
2022/08/28 04:00:57;;;;;;;6.63;5.23;;;;;;;;;;5009650;28;20209;-60
2022/08/28 04:03:23;;;;;;;7.23;6.63;;;;;;;;;;5016010;28;20174;-60
2022/08/28 04:05:50;;;;;;;6.00;4.50;;;;;;;;;;5011375;28;20228;-60
2022/08/28 04:08:17;;;;;;;5.70;5.20;;;;;;;;;;4987493;28;20186;-60
2022/08/28 04:10:44;;;;;;;4.80;4.20;;;;;;;;;;5009042;28;20210;-61
2022/08/28 04:13:11;;;;;;;8.33;5.53;;;;;;;;;;4991348;28;20211;-60
2022/08/28 04:15:37;;;;;;;5.90;4.80;;;;;;;;;;4991644;28;20190;-60
2022/08/28 04:18:03;;;;;;;6.13;5.07;;;;;;;;;;5010131;28;20182;-60
2022/08/28 04:20:29;;;;;;;7.40;5.63;;;;;;;;;;5009571;28;20186;-60
2022/08/28 04:22:56;;;;;;;5.87;5.27;;;;;;;;;;5021184;28;20187;-61
2022/08/28 04:25:22;;;;;;;9.30;8.60;;;;;;;;;;5009172;28;20211;-60
2022/08/28 04:27:53;;;;;;;5.80;4.77;;;;;;;;;;5019847;28;20841;-60
2022/08/28 04:30:20;;;;;;;12.00;11.10;;;;;;;;;;5012258;28;20642;-60
2022/08/28 04:32:46;;;;;;;9.93;9.07;;;;;;;;;;4991706;28;20446;-60
2022/08/28 04:35:13;;;;;;;5.97;5.23;;;;;;;;;;4995238;28;20225;-60
2022/08/28 04:37:40;;;;;;;5.33;4.83;;;;;;;;;;4989837;28;20194;-60
2022/08/28 04:40:09;;;;;;;6.27;5.30;;;;;;;;;;4993278;28;20204;-60
2022/08/28 04:42:36;;;;;;;5.83;4.53;;;;;;;;;;4998435;28;20192;-60
2022/08/28 04:45:03;;;;;;;6.10;5.50;;;;;;;;;;4994070;28;20205;-60
2022/08/28 04:47:29;;;;;;;6.13;5.40;;;;;;;;;;5012766;28;20190;-60
2022/08/28 04:49:56;;;;;;;5.50;4.70;;;;;;;;;;4991579;28;20234;-60
2022/08/28 04:52:22;;;;;;;6.80;4.70;;;;;;;;;;5024121;28;20190;-60
2022/08/28 04:54:48;;;;;;;6.33;4.70;;;;;;;;;;5008848;28;20175;-60
2022/08/28 04:57:15;;;;;;;6.20;4.93;;;;;;;;;;5011405;28;20177;-60
2022/08/28 04:59:43;;;;;;;5.43;4.30;;;;;;;;;;4988694;28;21129;-60
2022/08/28 05:02:10;;;;;;;10.63;9.80;;;;;;;;;;4989382;28;20189;-60
2022/08/28 05:04:36;;;;;;;5.37;4.27;;;;;;;;;;4988401;28;20636;-60
2022/08/28 05:07:03;;;;;;;7.70;4.83;;;;;;;;;;4988950;28;20514;-60
2022/08/28 05:09:30;;;;;;;6.57;5.27;;;;;;;;;;5004497;28;20198;-60
2022/08/28 05:11:57;;;;;;;8.17;4.73;;;;;;;;;;5013394;28;20185;-60
2022/08/28 05:14:23;;;;;;;5.90;4.60;;;;;;;;;;5010027;28;20205;-60
2022/08/28 05:16:51;;;;;;;5.03;4.53;;;;;;;;;;5021593;28;20190;-60
2022/08/28 05:19:18;;;;;;;4.87;4.47;;;;;;;;;;5006597;28;20262;-60
2022/08/28 05:21:45;;;;;;;4.67;4.20;;;;;;;;;;5006493;28;20174;-60
2022/08/28 05:24:30;;;;;;;4.80;4.27;;;;;;;;;;4745685;27;8316866;-62
2022/08/28 05:26:56;;;;;;;5.10;4.60;;;;;;;;;;5023061;28;20176;-59
2022/08/28 05:29:23;;;;;;;6.67;4.77;;;;;;;;;;5021453;28;20188;-59
2022/08/28 05:31:49;;;;;;;7.27;4.80;;;;;;;;;;5030310;28;20701;-60
2022/08/28 05:34:16;;;;;;;5.23;4.40;;;;;;;;;;5025536;28;20176;-59
2022/08/28 05:36:42;;;;;;;9.17;4.70;;;;;;;;;;5041598;28;20187;-59
2022/08/28 05:39:10;;;;;;;4.70;4.30;;;;;;;;;;5041792;28;20821;-59
2022/08/28 05:41:37;;;;;;;4.77;4.37;;;;;;;;;;5032944;28;20201;-59
2022/08/28 05:44:05;;;;;;;5.50;4.83;;;;;;;;;;5023073;28;20256;-59
2022/08/28 05:46:32;;;;;;;6.70;4.57;;;;;;;;;;5026828;28;20522;-62
2022/08/28 05:48:59;;;;;;;4.80;4.30;;;;;;;;;;5035745;28;20280;-62
2022/08/28 05:51:25;;;;;;;4.73;4.27;;;;;;;;;;5030502;28;20533;-60
2022/08/28 05:53:52;;;;;;;5.93;4.00;;;;;;;;;;5027480;28;20645;-60
2022/08/28 05:56:19;;;;;;;4.70;4.00;;;;;;;;;;5031952;28;20182;-59
2022/08/28 05:58:45;;;;;;;4.57;3.70;;;;;;;;;;5029207;28;20181;-62
2022/08/28 06:01:15;;;;;;;5.07;4.00;;;;;;;;;;5030969;28;20526;-62
2022/08/28 06:03:42;;;;;;;5.07;3.97;;;;;;;;;;5042458;28;20224;-62
2022/08/28 06:06:09;;;;;;;4.90;4.47;;;;;;;;;;5032347;28;20248;-62
2022/08/28 06:08:36;;;;;;;5.70;4.43;;;;;;;;;;5025392;28;20895;-62
2022/08/28 06:11:02;;;;;;;5.40;4.60;;;;;;;;;;5028024;28;20609;-60
2022/08/28 06:13:29;;;;;;;5.67;4.23;;;;;;;;;;5025196;28;20193;-62
2022/08/28 06:15:55;;;;;;;4.80;4.40;;;;;;;;;;5026682;28;20320;-63
2022/08/28 06:18:22;;;;;;;4.83;4.43;;;;;;;;;;5027498;28;20185;-59
2022/08/28 06:20:48;;;;;;;7.03;4.20;;;;;;;;;;5034725;28;20170;-62
2022/08/28 06:23:16;;;;;;;5.80;4.40;;;;;;;;;;5018979;28;20224;-62
2022/08/28 06:25:45;;;;;;;5.57;4.03;;;;;;;;;;5037892;28;20502;-62
2022/08/28 06:28:12;;;;;;;4.27;3.87;;;;;;;;;;5036637;28;20173;-59
2022/08/28 06:30:39;;;;;;;4.67;3.77;;;;;;;;;;5039521;28;20627;-62
2022/08/28 06:33:06;;;;;;;5.30;4.67;;;;;;;;;;5038122;28;20186;-60
2022/08/28 06:35:33;;;;;;;6.87;4.87;;;;;;;;;;5026374;28;20204;-60
2022/08/28 06:37:59;;;;;;;5.20;4.30;;;;;;;;;;5022687;28;20209;-60
2022/08/28 06:40:26;;;;;;;7.07;4.70;;;;;;;;;;5008589;28;20175;-60
2022/08/28 06:42:52;;;;;;;6.77;4.20;;;;;;;;;;5026431;28;20216;-60
2022/08/28 06:45:18;;;;;;;5.67;4.10;;;;;;;;;;5017492;28;20274;-60
2022/08/28 06:47:47;;;;;;;5.40;3.83;;;;;;;;;;5011511;28;20187;-61
2022/08/28 06:50:13;;;;;;;6.13;3.47;;;;;;;;;;5015327;28;20241;-60
2022/08/28 06:52:39;;;;;;;10.23;4.97;;;;;;;;;;5011881;28;20198;-59
2022/08/28 06:55:05;;;;;;;4.50;3.93;;;;;;;;;;5012348;28;20181;-60
2022/08/28 06:57:35;;;;;;;4.40;3.90;;;;;;;;;;5028346;28;20185;-60
2022/08/28 07:00:01;;;;;;;5.07;3.93;;;;;;;;;;5024280;28;20194;-60
2022/08/28 07:02:27;;;;;;;4.40;4.00;;;;;;;;;;5008628;28;20577;-60
2022/08/28 07:04:54;;;;;;;5.87;4.00;;;;;;;;;;5022817;28;20684;-60
2022/08/28 07:07:20;;;;;;;6.33;4.17;;;;;;;;;;5025893;28;20187;-59
2022/08/28 07:09:47;;;;;;;4.40;3.73;;;;;;;;;;5009121;28;20182;-60
2022/08/28 07:12:17;;;;;;;6.17;3.83;;;;;;;;;;5011353;28;20205;-60
2022/08/28 07:14:43;;;;;;;3.93;3.63;;;;;;;;;;5026038;28;20308;-60
2022/08/28 07:17:10;;;;;;;4.57;3.87;;;;;;;;;;5024453;28;20181;-59
2022/08/28 07:19:37;;;;;;;4.07;3.67;;;;;;;;;;5027102;28;20185;-60
2022/08/28 07:22:03;;;;;;;5.87;4.80;;;;;;;;;;5021878;28;20650;-59
2022/08/28 07:24:30;;;;;;;4.93;3.97;;;;;;;;;;5024276;28;20221;-60
2022/08/28 07:26:56;;;;;;;5.43;3.37;;;;;;;;;;4997716;28;20209;-60
2022/08/28 07:29:23;;;;;;;6.53;3.77;;;;;;;;;;4995582;28;20178;-59
2022/08/28 07:31:50;;;;;;;4.77;3.40;;;;;;;;;;4997851;28;20636;-58
2022/08/28 07:34:17;;;;;;;5.93;3.97;;;;;;;;;;4995544;28;20197;-56
2022/08/28 07:36:44;;;;;;;7.07;4.30;;;;;;;;;;5015487;28;20646;-57
2022/08/28 07:39:12;;;;;;;10.70;4.87;;;;;;;;;;5006844;28;20221;-57
2022/08/28 07:41:41;;;;;;;7.05;3.97;;;;;;;;;;5019648;28;20784;-56
2022/08/28 07:46:53;;;;;;;8.40;3.90;;;;;;;;;;5017681;28;20178;-60
2022/08/28 07:49:20;;;;;;;7.13;4.20;;;;;;;;;;5012401;28;20181;-57
2022/08/28 07:51:46;;;;;;;9.20;3.80;;;;;;;;;;4996874;28;20649;-56
2022/08/28 07:54:12;;;;;;;6.23;4.20;;;;;;;;;;5007390;28;20186;-55
2022/08/28 07:56:41;;;;;;;7.07;3.90;;;;;;;;;;5014904;28;21666;-56
2022/08/28 07:59:08;;;;;;;7.23;4.20;;;;;;;;;;5017650;28;20683;-58
2022/08/28 08:01:42;;;;;;;9.07;5.00;;;;;;;;;;5018863;28;20194;-57
2022/08/28 08:04:11;;;;;;;8.77;3.97;;;;;;;;;;5000828;28;20239;-56
2022/08/28 08:06:38;;;;;;;9.57;4.93;;;;;;;;;;4993140;28;20257;-58
2022/08/28 08:09:05;;;;;;;8.27;4.63;;;;;;;;;;4994376;28;20184;-57
2022/08/28 08:11:31;;;;;;;12.43;4.67;;;;;;;;;;4994699;28;20187;-58
2022/08/28 08:14:02;;;;;;;7.47;3.83;;;;;;;;;;4996810;28;20708;-58
2022/08/28 08:16:29;;;;;;;7.90;4.37;;;;;;;;;;4994529;28;20187;-57
2022/08/28 08:18:56;;;;;;;6.93;4.70;;;;;;;;;;4997097;28;20191;-57
2022/08/28 08:21:22;;;;;;;7.43;5.13;;;;;;;;;;5009980;28;20186;-57
2022/08/28 08:23:50;;;;;;;9.73;4.60;;;;;;;;;;5000963;28;20664;-57
2022/08/28 08:26:18;;;;;;;7.37;4.20;;;;;;;;;;4993745;28;20727;-58
2022/08/28 08:28:44;;;;;;;5.30;3.60;;;;;;;;;;5008454;28;20227;-56
2022/08/28 08:31:13;;;;;;;7.10;4.50;;;;;;;;;;5014479;28;20591;-57
2022/08/28 08:33:42;;;;;;;8.63;3.67;;;;;;;;;;5008925;28;20604;-57
2022/08/28 08:36:09;;;;;;;7.10;4.17;;;;;;;;;;5017737;28;20264;-57
2022/08/28 08:38:36;;;;;;;9.20;4.47;;;;;;;;;;5018852;28;20221;-57
2022/08/28 08:41:05;;;;;;;7.47;4.17;;;;;;;;;;5020439;28;20186;-56
2022/08/28 08:43:33;;;;;;;6.15;3.92;;;;;;;;;;5019501;28;20743;-58
2022/08/28 08:45:59;;;;;;;9.40;5.13;;;;;;;;;;5018353;28;20203;-57
2022/08/28 08:48:25;;;;;;;5.53;4.10;;;;;;;;;;5022701;28;20260;-57
2022/08/28 08:50:52;;;;;;;8.45;4.50;;;;;;;;;;5008168;28;20183;-55
2022/08/28 08:53:42;;;;;;;6.63;4.50;;;;;;;;;;5010329;28;20646;-56
2022/08/28 08:56:12;;;;;;;7.47;4.75;;;;;;;;;;4995028;28;20204;-57
2022/08/28 08:58:43;;;;;;;5.47;4.82;;;;;;;;;;5016289;28;20541;-58
2022/08/28 09:01:27;;;;;;;5.10;4.60;;;;;;;;;;4995431;28;20257;-57
2022/08/28 09:03:57;;;;;;;7.40;4.25;;;;;;;;;;4997452;28;20292;-56
2022/08/28 09:06:35;;;;;;;6.47;4.97;;;;;;;;;;4996793;28;20229;-57
2022/08/28 09:09:06;;;;;;;4.97;4.55;;;;;;;;;;5010031;28;20182;-56
2022/08/28 09:11:40;;;;;;;5.57;3.92;;;;;;;;;;4999148;28;20337;-57
2022/08/28 09:14:10;;;;;;;7.68;4.38;;;;;;;;;;5016667;28;20224;-56
2022/08/28 09:16:38;;;;;;;5.43;4.00;;;;;;;;;;5015788;28;20672;-56
2022/08/28 09:19:05;;;;;;;6.32;3.92;;;;;;;;;;5004275;28;20619;-56
2022/08/28 09:21:34;;;;;;;13.15;4.88;;;;;;;;;;5024136;28;20196;-57
2022/08/28 09:24:01;;;;;;;6.95;4.53;;;;;;;;;;5006469;28;20230;-57
2022/08/28 09:26:28;;;;;;;8.98;4.53;;;;;;;;;;4982011;28;20675;-56
2022/08/28 09:29:00;;;;;;;5.23;4.60;;;;;;;;;;4962589;28;20180;-57
2022/08/28 09:31:43;;;;;;;5.10;4.23;;;;;;;;;;4987480;28;20191;-59
2022/08/28 09:34:22;;;;;;;5.63;4.27;;;;;;;;;;4978939;28;20299;-57
2022/08/28 09:36:49;;;;;;;4.43;4.03;;;;;;;;;;4944508;28;20299;-57
2022/08/28 09:39:23;;;;;;;6.83;4.50;;;;;;;;;;4967025;28;20192;-56
2022/08/28 09:44:55;;;;;;;6.47;4.37;;;;;;;;;;4963497;28;20259;-57
2022/08/28 09:47:33;;;;;;;4.47;4.03;;;;;;;;;;4934794;28;20223;-56
2022/08/28 09:50:19;;;;;;;5.73;3.77;;;;;;;;;;4967508;28;20222;-57
2022/08/28 09:52:45;;;;;;;5.60;5.00;;;;;;;;;;4959099;28;20224;-57
2022/08/28 09:55:15;;;;;;;6.40;4.73;;;;;;;;;;4953053;28;20184;-59
2022/08/28 09:57:45;;;;;;;5.93;4.47;;;;;;;;;;4971205;28;20199;-55
2022/08/28 10:00:13;;;;;;;9.27;4.10;;;;;;;;;;4947944;28;20393;-56
2022/08/28 10:02:51;;;;;;;6.50;3.83;;;;;;;;;;4930413;28;20762;-56
2022/08/28 10:05:22;;;;;;;7.83;4.20;;;;;;;;;;4962683;28;20623;-55
2022/08/28 10:07:52;;;;;;;7.77;4.60;;;;;;;;;;4953769;28;20214;-57
2022/08/28 10:10:29;;;;;;;6.67;4.30;;;;;;;;;;4977462;28;20191;-56
2022/08/28 10:13:14;;;;;;;5.70;3.90;;;;;;;;;;4978208;28;20597;-56
2022/08/28 10:15:58;;;;;;;4.87;4.20;;;;;;;;;;4968884;28;20737;-56
2022/08/28 10:18:36;;;;;;;4.10;3.70;;;;;;;;;;4970777;28;20638;-56
2022/08/28 10:21:03;;;;;;;11.27;3.67;;;;;;;;;;4976602;28;20219;-56
2022/08/28 10:24:04;;;;;;;5.80;3.83;;;;;;;;;;4986041;28;20234;-56
2022/08/28 10:26:36;;;;;;;6.17;3.77;;;;;;;;;;4939394;28;20986;-56
2022/08/28 10:29:21;;;;;;;4.37;3.43;;;;;;;;;;4961608;28;20199;-55
2022/08/28 10:31:50;;;;;;;5.83;4.20;;;;;;;;;;4986040;28;20545;-56
2022/08/28 10:34:17;;;;;;;4.57;3.47;;;;;;;;;;4987685;28;20187;-55
2022/08/28 10:36:44;;;;;;;8.57;4.40;;;;;;;;;;4990184;28;20432;-56
2022/08/28 10:39:28;;;;;;;6.80;3.90;;;;;;;;;;4968924;28;20187;-58
2022/08/28 10:41:57;;;;;;;4.03;3.63;;;;;;;;;;4969710;28;20184;-59
2022/08/28 10:44:30;;;;;;;3.93;3.53;;;;;;;;;;4986253;28;20207;-59
2022/08/28 10:46:57;;;;;;;3.67;3.37;;;;;;;;;;4987615;28;20166;-59
2022/08/28 10:49:26;;;;;;;5.23;4.17;;;;;;;;;;4973693;28;20179;-59
2022/08/28 10:51:56;;;;;;;12.50;4.07;;;;;;;;;;4988144;28;20575;-57
2022/08/28 10:54:28;;;;;;;5.30;3.77;;;;;;;;;;4984735;28;20184;-56
2022/08/28 10:57:01;;;;;;;5.53;3.57;;;;;;;;;;4980264;28;20188;-57
2022/08/28 10:59:28;;;;;;;4.20;3.23;;;;;;;;;;4971302;28;20193;-56
2022/08/28 11:01:55;;;;;;;4.27;3.77;;;;;;;;;;4984311;28;20179;-56
2022/08/28 11:04:22;;;;;;;8.47;3.80;;;;;;;;;;4972033;28;20244;-56
2022/08/28 11:07:24;;;;;;;9.40;3.50;;;;;;;;;;5000879;28;20194;-57
2022/08/28 11:09:57;;;;;;;5.63;3.83;;;;;;;;;;4945804;28;20754;-57
2022/08/28 11:12:35;;;;;;;8.00;3.93;;;;;;;;;;4966405;28;20554;-57
2022/08/28 11:15:21;;;;;;;5.13;3.90;;;;;;;;;;4990058;28;20191;-57
2022/08/28 11:17:49;;;;;;;8.13;4.83;;;;;;;;;;4972056;28;20297;-57
2022/08/28 11:20:19;;;;;;;6.40;4.77;;;;;;;;;;4971739;28;20180;-56
2022/08/28 11:22:51;;;;;;;4.40;4.00;;;;;;;;;;4992458;28;20202;-56
2022/08/28 11:25:27;;;;;;;4.80;4.20;;;;;;;;;;4988638;28;20486;-56
2022/08/28 11:28:13;;;;;;;7.60;4.00;;;;;;;;;;4984006;28;20240;-56
2022/08/28 11:30:39;;;;;;;12.13;4.43;;;;;;;;;;4970013;28;20317;-56
2022/08/28 11:33:25;;;;;;;4.33;3.93;;;;;;;;;;4972438;28;20623;-56
2022/08/28 11:35:52;;;;;;;7.27;4.07;;;;;;;;;;4991111;28;20273;-56
2022/08/28 11:38:36;;;;;;;4.77;4.00;;;;;;;;;;5001508;28;20180;-56
2022/08/28 11:41:13;;;;;;;4.87;3.67;;;;;;;;;;4994045;28;20187;-55
2022/08/28 11:43:41;;;;;;;5.57;3.20;;;;;;;;;;4971712;28;20208;-55
2022/08/28 11:46:11;;;;;;;5.17;3.90;;;;;;;;;;4993289;28;20168;-56
2022/08/28 11:48:42;;;;;;;4.93;3.80;;;;;;;;;;4983923;28;20182;-56
2022/08/28 11:51:17;;;;;;;4.60;3.47;;;;;;;;;;4992002;28;20269;-55
2022/08/28 11:53:49;;;;;;;5.67;3.83;;;;;;;;;;4969166;28;20669;-55
2022/08/28 11:56:22;;;;;;;9.73;3.83;;;;;;;;;;4966450;28;20179;-56
2022/08/28 11:59:07;;;;;;;6.33;3.80;;;;;;;;;;4983853;28;20183;-56
2022/08/28 12:01:34;;;;;;;3.60;3.20;;;;;;;;;;4973360;28;20234;-58
2022/08/28 12:04:30;;;;;;;3.90;3.53;;;;;;;;;;4968837;28;20685;-57
2022/08/28 12:07:11;;;;;;;4.93;3.43;;;;;;;;;;4967122;28;20197;-56
2022/08/28 12:09:39;;;;;;;6.27;3.17;;;;;;;;;;4984354;28;20562;-56
2022/08/28 12:12:05;;;;;;;4.17;3.77;;;;;;;;;;4984157;28;20717;-56
2022/08/28 12:14:38;;;;;;;4.47;3.90;;;;;;;;;;4988940;28;20262;-57
2022/08/28 12:17:23;;;;;;;4.53;3.77;;;;;;;;;;4986125;28;20299;-55
2022/08/28 12:19:54;;;;;;;3.70;3.30;;;;;;;;;;4988876;28;20187;-56
2022/08/28 12:22:23;;;;;;;8.10;7.43;;;;;;;;;;4965606;28;20223;-56
2022/08/28 12:25:12;;;;;;;5.80;3.57;;;;;;;;;;4974415;28;20255;-58
2022/08/28 12:27:41;;;;;;;4.10;3.70;;;;;;;;;;4989498;28;20251;-57
2022/08/28 12:30:08;;;;;;;5.00;3.60;;;;;;;;;;4956227;28;20212;-57
2022/08/28 12:32:40;;;;;;;4.03;3.57;;;;;;;;;;4999421;28;20182;-57
2022/08/28 12:35:06;;;;;;;5.00;3.17;;;;;;;;;;4991004;28;20184;-59
2022/08/28 12:37:34;;;;;;;4.17;3.30;;;;;;;;;;4968818;28;20637;-57
2022/08/28 12:40:08;;;;;;;4.57;4.17;;;;;;;;;;4968576;28;20439;-57
2022/08/28 12:42:37;;;;;;;5.73;3.40;;;;;;;;;;4968647;28;20641;-58
2022/08/28 12:45:06;;;;;;;3.73;3.00;;;;;;;;;;4985656;28;20210;-57
2022/08/28 12:47:33;;;;;;;5.50;3.43;;;;;;;;;;4968367;28;20179;-57
2022/08/28 12:50:18;;;;;;;3.90;3.30;;;;;;;;;;4968269;28;20176;-57
2022/08/28 12:52:49;;;;;;;4.40;3.30;;;;;;;;;;4967812;28;20584;-57
2022/08/28 12:55:16;;;;;;;3.87;3.57;;;;;;;;;;4954639;28;20203;-57
2022/08/28 12:57:46;;;;;;;3.60;2.97;;;;;;;;;;4986224;28;20179;-58
2022/08/28 13:00:16;;;;;;;5.87;3.80;;;;;;;;;;4984059;28;20183;-57
2022/08/28 13:02:42;;;;;;;3.37;3.07;;;;;;;;;;4982869;28;20204;-57
2022/08/28 13:05:10;;;;;;;5.87;3.07;;;;;;;;;;4989270;28;20684;-58
2022/08/28 13:07:48;;;;;;;3.63;3.03;;;;;;;;;;4968369;28;20180;-58
2022/08/28 13:10:23;;;;;;;4.30;3.60;;;;;;;;;;4967883;28;20797;-58
2022/08/28 13:12:54;;;;;;;3.33;3.00;;;;;;;;;;4969661;28;20230;-56
2022/08/28 13:15:38;;;;;;;7.30;3.07;;;;;;;;;;4968378;28;20278;-57
2022/08/28 13:18:07;;;;;;;3.13;2.87;;;;;;;;;;4967517;28;20176;-58
2022/08/28 13:20:35;;;;;;;3.53;3.23;;;;;;;;;;4985353;28;20183;-57
2022/08/28 13:23:01;;;;;;;3.90;3.50;;;;;;;;;;4985143;28;20227;-57
2022/08/28 13:25:29;;;;;;;5.20;3.20;;;;;;;;;;4985478;28;20588;-58
2022/08/28 13:28:04;;;;;;;3.37;3.03;;;;;;;;;;4968234;28;20209;-59
2022/08/28 13:30:33;;;;;;;3.43;3.13;;;;;;;;;;4994867;28;20673;-59
2022/08/28 13:33:00;;;;;;;5.22;3.03;;;;;;;;;;4982266;28;20450;-57
2022/08/28 13:35:27;;;;;;;3.60;3.17;;;;;;;;;;4981814;28;20598;-57
2022/08/28 13:37:58;;;;;;;3.73;3.40;;;;;;;;;;4983872;28;20187;-57
2022/08/28 13:40:28;;;;;;;4.37;4.07;;;;;;;;;;4983291;28;20240;-57
2022/08/28 13:42:59;;;;;;;4.60;3.43;;;;;;;;;;4980709;28;20639;-58
2022/08/28 13:45:25;;;;;;;4.17;3.17;;;;;;;;;;4987033;28;20349;-56
2022/08/28 13:47:51;;;;;;;5.50;3.30;;;;;;;;;;4985395;28;20236;-58
2022/08/28 13:50:18;;;;;;;3.53;3.20;;;;;;;;;;4972634;28;20190;-59
2022/08/28 13:52:44;;;;;;;4.17;3.77;;;;;;;;;;4984063;28;20184;-57
2022/08/28 13:55:10;;;;;;;3.40;3.10;;;;;;;;;;4989851;28;20210;-56
2022/08/28 13:57:37;;;;;;;6.43;5.93;;;;;;;;;;4969369;28;20201;-58
2022/08/28 14:00:04;;;;;;;4.40;4.10;;;;;;;;;;4987822;28;20643;-56
2022/08/28 14:05:15;;;;;;;8.43;3.10;;;;;;;;;;4998989;28;20217;-57
2022/08/28 14:07:41;;;;;;;4.17;3.50;;;;;;;;;;4989243;28;20874;-57
2022/08/28 14:10:08;;;;;;;4.33;3.60;;;;;;;;;;4992278;28;20184;-57
2022/08/28 14:12:34;;;;;;;4.00;3.70;;;;;;;;;;4990056;28;20188;-57
2022/08/28 14:15:01;;;;;;;5.53;3.33;;;;;;;;;;4986914;28;20183;-56
2022/08/28 14:17:27;;;;;;;3.33;3.03;;;;;;;;;;4989282;28;20231;-56
2022/08/28 14:19:54;;;;;;;5.10;2.90;;;;;;;;;;4971684;28;20214;-56
2022/08/28 14:22:20;;;;;;;5.90;5.30;;;;;;;;;;4974216;28;20270;-56
2022/08/28 14:24:46;;;;;;;5.00;3.27;;;;;;;;;;4988605;28;20449;-56
2022/08/28 14:27:13;;;;;;;4.00;3.53;;;;;;;;;;4969215;28;20602;-56
2022/08/28 14:29:39;;;;;;;3.30;3.00;;;;;;;;;;4954533;28;20574;-56
2022/08/28 14:32:05;;;;;;;5.30;3.30;;;;;;;;;;4972923;28;20175;-56
2022/08/28 14:34:31;;;;;;;5.60;3.10;;;;;;;;;;4985997;28;20756;-56
2022/08/28 14:36:58;;;;;;;3.83;3.13;;;;;;;;;;4986778;28;20568;-56
2022/08/28 14:39:27;;;;;;;3.77;3.13;;;;;;;;;;4985910;28;20645;-56
2022/08/28 14:41:54;;;;;;;3.30;2.73;;;;;;;;;;4984909;28;20236;-55
2022/08/28 14:44:21;;;;;;;3.30;3.10;;;;;;;;;;4955187;28;20815;-55
2022/08/28 14:46:49;;;;;;;4.23;2.90;;;;;;;;;;4990853;28;20944;-56
2022/08/28 14:49:15;;;;;;;4.03;2.77;;;;;;;;;;4983005;28;20194;-55
2022/08/28 14:51:42;;;;;;;7.53;4.10;;;;;;;;;;4988485;28;20190;-56
2022/08/28 14:54:10;;;;;;;4.30;3.00;;;;;;;;;;4974390;28;20619;-55
2022/08/28 14:56:36;;;;;;;4.50;2.90;;;;;;;;;;4981918;28;20225;-56
2022/08/28 14:59:03;;;;;;;5.27;3.03;;;;;;;;;;4988356;28;20764;-56
2022/08/28 15:01:30;;;;;;;3.47;3.00;;;;;;;;;;4973881;28;20667;-57
2022/08/28 15:03:57;;;;;;;3.80;3.20;;;;;;;;;;4968957;28;20758;-57
2022/08/28 15:06:24;;;;;;;5.33;3.00;;;;;;;;;;4986380;28;20253;-56
2022/08/28 15:08:50;;;;;;;5.30;3.23;;;;;;;;;;4991465;28;20181;-56